sensor_id;sensor_type;location;lat;lon;timestamp;temperature;humidity
7216;DHT22;3649;48.798;9.798;2023-06-26T00:01:31;23.20;95.40
7216;DHT22;3649;48.798;9.798;2023-06-26T00:04:01;23.20;95.40
7216;DHT22;3649;48.798;9.798;2023-06-26T00:06:29;23.20;95.40
7216;DHT22;3649;48.798;9.798;2023-06-26T00:08:56;23.20;95.30
7216;DHT22;3649;48.798;9.798;2023-06-26T00:11:25;23.30;95.20
7216;DHT22;3649;48.798;9.798;2023-06-26T00:13:54;23.30;95.10
7216;DHT22;3649;48.798;9.798;2023-06-26T00:16:20;23.30;95.10
7216;DHT22;3649;48.798;9.798;2023-06-26T00:18:47;23.40;95.10
7216;DHT22;3649;48.798;9.798;2023-06-26T00:21:14;23.30;95.00
7216;DHT22;3649;48.798;9.798;2023-06-26T00:23:41;23.30;95.10
7216;DHT22;3649;48.798;9.798;2023-06-26T00:26:08;23.30;95.20
7216;DHT22;3649;48.798;9.798;2023-06-26T00:28:36;23.30;95.20
7216;DHT22;3649;48.798;9.798;2023-06-26T00:31:03;23.20;95.40
7216;DHT22;3649;48.798;9.798;2023-06-26T00:33:30;23.10;95.50
7216;DHT22;3649;48.798;9.798;2023-06-26T00:36:03;23.10;95.50
7216;DHT22;3649;48.798;9.798;2023-06-26T00:38:39;23.00;95.50
7216;DHT22;3649;48.798;9.798;2023-06-26T00:41:05;22.90;95.60
7216;DHT22;3649;48.798;9.798;2023-06-26T00:43:45;22.90;95.60
7216;DHT22;3649;48.798;9.798;2023-06-26T00:46:15;22.90;95.70
7216;DHT22;3649;48.798;9.798;2023-06-26T00:48:43;22.90;95.70
7216;DHT22;3649;48.798;9.798;2023-06-26T00:51:12;22.90;95.60
7216;DHT22;3649;48.798;9.798;2023-06-26T00:53:39;22.90;95.70
7216;DHT22;3649;48.798;9.798;2023-06-26T00:56:06;22.90;95.70
7216;DHT22;3649;48.798;9.798;2023-06-26T00:58:34;22.90;95.80
7216;DHT22;3649;48.798;9.798;2023-06-26T01:01:01;22.90;95.80
7216;DHT22;3649;48.798;9.798;2023-06-26T01:03:29;23.00;95.90
7216;DHT22;3649;48.798;9.798;2023-06-26T01:05:57;22.90;95.80
7216;DHT22;3649;48.798;9.798;2023-06-26T01:08:25;22.90;96.10
7216;DHT22;3649;48.798;9.798;2023-06-26T01:10:53;22.80;95.90
7216;DHT22;3649;48.798;9.798;2023-06-26T01:13:20;22.80;95.90
7216;DHT22;3649;48.798;9.798;2023-06-26T01:15:48;22.70;95.90
7216;DHT22;3649;48.798;9.798;2023-06-26T01:18:15;22.70;95.90
7216;DHT22;3649;48.798;9.798;2023-06-26T01:20:44;22.60;95.90
7216;DHT22;3649;48.798;9.798;2023-06-26T01:23:35;22.60;96.00
7216;DHT22;3649;48.798;9.798;2023-06-26T01:26:20;22.70;95.90
7216;DHT22;3649;48.798;9.798;2023-06-26T01:28:49;22.70;95.80
7216;DHT22;3649;48.798;9.798;2023-06-26T01:31:17;22.70;95.70
7216;DHT22;3649;48.798;9.798;2023-06-26T01:33:46;22.80;95.70
7216;DHT22;3649;48.798;9.798;2023-06-26T01:36:13;22.80;95.80
7216;DHT22;3649;48.798;9.798;2023-06-26T01:38:40;22.70;95.90
7216;DHT22;3649;48.798;9.798;2023-06-26T01:41:07;22.60;95.90
7216;DHT22;3649;48.798;9.798;2023-06-26T01:46:54;22.70;96.00
7216;DHT22;3649;48.798;9.798;2023-06-26T01:50:00;22.60;96.10
7216;DHT22;3649;48.798;9.798;2023-06-26T01:52:40;22.50;96.20
7216;DHT22;3649;48.798;9.798;2023-06-26T01:55:28;22.50;96.10
7216;DHT22;3649;48.798;9.798;2023-06-26T01:57:59;22.50;95.90
7216;DHT22;3649;48.798;9.798;2023-06-26T02:00:27;22.50;95.90
7216;DHT22;3649;48.798;9.798;2023-06-26T02:02:54;22.40;95.90
7216;DHT22;3649;48.798;9.798;2023-06-26T02:05:21;22.50;96.10
7216;DHT22;3649;48.798;9.798;2023-06-26T02:07:48;22.40;95.90
7216;DHT22;3649;48.798;9.798;2023-06-26T02:10:14;22.30;96.10
7216;DHT22;3649;48.798;9.798;2023-06-26T02:12:41;22.40;96.30
7216;DHT22;3649;48.798;9.798;2023-06-26T02:15:08;22.30;96.30
7216;DHT22;3649;48.798;9.798;2023-06-26T02:17:35;22.20;96.30
7216;DHT22;3649;48.798;9.798;2023-06-26T02:20:02;22.20;96.40
7216;DHT22;3649;48.798;9.798;2023-06-26T02:22:30;22.10;96.40
7216;DHT22;3649;48.798;9.798;2023-06-26T02:24:56;22.10;96.40
7216;DHT22;3649;48.798;9.798;2023-06-26T02:27:23;22.10;96.40
7216;DHT22;3649;48.798;9.798;2023-06-26T02:29:50;22.10;96.40
7216;DHT22;3649;48.798;9.798;2023-06-26T02:32:17;22.10;96.60
7216;DHT22;3649;48.798;9.798;2023-06-26T02:34:44;22.00;96.70
7216;DHT22;3649;48.798;9.798;2023-06-26T02:37:10;22.00;96.90
7216;DHT22;3649;48.798;9.798;2023-06-26T02:39:37;22.00;97.30
7216;DHT22;3649;48.798;9.798;2023-06-26T02:42:04;21.90;96.90
7216;DHT22;3649;48.798;9.798;2023-06-26T02:44:31;21.90;97.10
7216;DHT22;3649;48.798;9.798;2023-06-26T02:46:58;21.90;97.10
7216;DHT22;3649;48.798;9.798;2023-06-26T02:49:25;21.90;97.10
7216;DHT22;3649;48.798;9.798;2023-06-26T02:51:52;21.90;97.30
7216;DHT22;3649;48.798;9.798;2023-06-26T02:54:21;21.90;97.10
7216;DHT22;3649;48.798;9.798;2023-06-26T02:56:47;21.90;97.10
7216;DHT22;3649;48.798;9.798;2023-06-26T02:59:15;21.90;97.20
7216;DHT22;3649;48.798;9.798;2023-06-26T03:01:41;21.90;97.10
7216;DHT22;3649;48.798;9.798;2023-06-26T03:04:08;21.90;97.10
7216;DHT22;3649;48.798;9.798;2023-06-26T03:06:36;21.80;97.10
7216;DHT22;3649;48.798;9.798;2023-06-26T03:09:02;21.90;97.10
7216;DHT22;3649;48.798;9.798;2023-06-26T03:11:29;21.80;97.10
7216;DHT22;3649;48.798;9.798;2023-06-26T03:13:56;21.70;97.10
7216;DHT22;3649;48.798;9.798;2023-06-26T03:16:23;21.70;97.30
7216;DHT22;3649;48.798;9.798;2023-06-26T03:18:50;21.60;97.30
7216;DHT22;3649;48.798;9.798;2023-06-26T03:21:17;21.60;97.30
7216;DHT22;3649;48.798;9.798;2023-06-26T03:23:44;21.60;97.30
7216;DHT22;3649;48.798;9.798;2023-06-26T03:26:11;21.70;97.30
7216;DHT22;3649;48.798;9.798;2023-06-26T03:28:41;21.70;97.30
7216;DHT22;3649;48.798;9.798;2023-06-26T03:31:08;21.70;97.30
7216;DHT22;3649;48.798;9.798;2023-06-26T03:33:36;21.70;97.30
7216;DHT22;3649;48.798;9.798;2023-06-26T03:36:04;21.70;97.40
7216;DHT22;3649;48.798;9.798;2023-06-26T03:38:30;21.60;97.40
7216;DHT22;3649;48.798;9.798;2023-06-26T03:40:57;21.70;97.30
7216;DHT22;3649;48.798;9.798;2023-06-26T03:43:24;21.70;97.30
7216;DHT22;3649;48.798;9.798;2023-06-26T03:45:51;21.70;97.20
7216;DHT22;3649;48.798;9.798;2023-06-26T03:48:18;21.70;97.20
7216;DHT22;3649;48.798;9.798;2023-06-26T03:50:45;21.70;97.10
7216;DHT22;3649;48.798;9.798;2023-06-26T03:53:12;21.70;97.10
7216;DHT22;3649;48.798;9.798;2023-06-26T03:55:38;21.70;97.10
7216;DHT22;3649;48.798;9.798;2023-06-26T03:58:06;21.70;97.00
7216;DHT22;3649;48.798;9.798;2023-06-26T04:00:33;21.70;97.10
7216;DHT22;3649;48.798;9.798;2023-06-26T04:02:59;21.70;97.10
7216;DHT22;3649;48.798;9.798;2023-06-26T04:05:26;21.70;97.10
7216;DHT22;3649;48.798;9.798;2023-06-26T04:07:54;21.60;97.20
7216;DHT22;3649;48.798;9.798;2023-06-26T04:10:21;21.60;97.20
7216;DHT22;3649;48.798;9.798;2023-06-26T04:12:48;21.70;97.20
7216;DHT22;3649;48.798;9.798;2023-06-26T04:15:15;21.70;97.40
7216;DHT22;3649;48.798;9.798;2023-06-26T04:17:41;21.70;97.70
7216;DHT22;3649;48.798;9.798;2023-06-26T04:20:09;21.70;97.80
7216;DHT22;3649;48.798;9.798;2023-06-26T04:22:35;21.70;97.90
7216;DHT22;3649;48.798;9.798;2023-06-26T04:25:03;21.70;98.00
7216;DHT22;3649;48.798;9.798;2023-06-26T04:27:30;21.70;98.00
7216;DHT22;3649;48.798;9.798;2023-06-26T04:29:57;21.60;98.10
7216;DHT22;3649;48.798;9.798;2023-06-26T04:32:24;21.70;98.20
7216;DHT22;3649;48.798;9.798;2023-06-26T04:34:51;21.60;98.10
7216;DHT22;3649;48.798;9.798;2023-06-26T04:37:17;21.60;98.10
7216;DHT22;3649;48.798;9.798;2023-06-26T04:39:44;21.70;98.00
7216;DHT22;3649;48.798;9.798;2023-06-26T04:42:11;21.80;97.90
7216;DHT22;3649;48.798;9.798;2023-06-26T04:44:38;21.90;97.70
7216;DHT22;3649;48.798;9.798;2023-06-26T04:47:08;21.90;97.50
7216;DHT22;3649;48.798;9.798;2023-06-26T04:49:35;21.80;97.50
7216;DHT22;3649;48.798;9.798;2023-06-26T04:52:05;22.00;97.50
7216;DHT22;3649;48.798;9.798;2023-06-26T04:54:31;21.90;97.60
7216;DHT22;3649;48.798;9.798;2023-06-26T04:56:58;21.90;97.60
7216;DHT22;3649;48.798;9.798;2023-06-26T04:59:26;21.90;97.50
7216;DHT22;3649;48.798;9.798;2023-06-26T05:01:53;22.00;97.50
7216;DHT22;3649;48.798;9.798;2023-06-26T05:04:20;22.00;97.60
7216;DHT22;3649;48.798;9.798;2023-06-26T05:06:47;22.00;97.60
7216;DHT22;3649;48.798;9.798;2023-06-26T05:09:32;22.00;97.40
7216;DHT22;3649;48.798;9.798;2023-06-26T05:11:59;22.00;97.40
7216;DHT22;3649;48.798;9.798;2023-06-26T05:14:26;22.10;97.50
7216;DHT22;3649;48.798;9.798;2023-06-26T05:16:53;22.00;97.40
7216;DHT22;3649;48.798;9.798;2023-06-26T05:19:20;22.10;97.40
7216;DHT22;3649;48.798;9.798;2023-06-26T05:21:48;22.10;97.40
7216;DHT22;3649;48.798;9.798;2023-06-26T05:24:15;22.20;97.40
7216;DHT22;3649;48.798;9.798;2023-06-26T05:26:43;22.30;97.40
7216;DHT22;3649;48.798;9.798;2023-06-26T05:29:10;22.30;97.40
7216;DHT22;3649;48.798;9.798;2023-06-26T05:31:40;22.30;97.40
7216;DHT22;3649;48.798;9.798;2023-06-26T05:34:10;22.40;97.40
7216;DHT22;3649;48.798;9.798;2023-06-26T05:36:38;22.40;97.20
7216;DHT22;3649;48.798;9.798;2023-06-26T05:39:05;22.40;97.20
7216;DHT22;3649;48.798;9.798;2023-06-26T05:41:33;22.50;97.10
7216;DHT22;3649;48.798;9.798;2023-06-26T05:43:59;22.50;97.10
7216;DHT22;3649;48.798;9.798;2023-06-26T05:46:27;22.60;97.00
7216;DHT22;3649;48.798;9.798;2023-06-26T05:48:54;22.70;97.00
7216;DHT22;3649;48.798;9.798;2023-06-26T05:51:21;22.80;97.00
7216;DHT22;3649;48.798;9.798;2023-06-26T05:53:49;22.80;96.90
7216;DHT22;3649;48.798;9.798;2023-06-26T05:56:16;22.90;96.80
7216;DHT22;3649;48.798;9.798;2023-06-26T05:58:46;23.00;96.80
7216;DHT22;3649;48.798;9.798;2023-06-26T06:01:13;23.10;96.80
7216;DHT22;3649;48.798;9.798;2023-06-26T06:03:40;23.10;96.80
7216;DHT22;3649;48.798;9.798;2023-06-26T06:06:07;23.20;96.70
7216;DHT22;3649;48.798;9.798;2023-06-26T06:08:34;23.30;96.60
7216;DHT22;3649;48.798;9.798;2023-06-26T06:11:01;23.40;96.90
7216;DHT22;3649;48.798;9.798;2023-06-26T06:13:28;23.50;96.50
7216;DHT22;3649;48.798;9.798;2023-06-26T06:15:55;23.60;96.50
7216;DHT22;3649;48.798;9.798;2023-06-26T06:18:23;23.70;96.50
7216;DHT22;3649;48.798;9.798;2023-06-26T06:20:49;23.80;96.40
7216;DHT22;3649;48.798;9.798;2023-06-26T06:23:16;23.90;96.40
7216;DHT22;3649;48.798;9.798;2023-06-26T06:25:43;24.10;96.30
7216;DHT22;3649;48.798;9.798;2023-06-26T06:28:10;24.20;96.30
7216;DHT22;3649;48.798;9.798;2023-06-26T06:30:37;24.30;96.10
7216;DHT22;3649;48.798;9.798;2023-06-26T06:33:11;24.30;96.00
7216;DHT22;3649;48.798;9.798;2023-06-26T06:35:38;24.40;96.00
7216;DHT22;3649;48.798;9.798;2023-06-26T06:38:05;24.50;95.90
7216;DHT22;3649;48.798;9.798;2023-06-26T06:40:32;24.60;95.90
7216;DHT22;3649;48.798;9.798;2023-06-26T06:42:59;24.80;95.90
7216;DHT22;3649;48.798;9.798;2023-06-26T06:45:26;24.90;95.90
7216;DHT22;3649;48.798;9.798;2023-06-26T06:47:53;25.10;95.70
7216;DHT22;3649;48.798;9.798;2023-06-26T06:50:20;25.40;95.60
7216;DHT22;3649;48.798;9.798;2023-06-26T06:52:47;25.60;95.50
7216;DHT22;3649;48.798;9.798;2023-06-26T06:55:14;25.90;95.10
7216;DHT22;3649;48.798;9.798;2023-06-26T06:57:40;26.10;94.80
7216;DHT22;3649;48.798;9.798;2023-06-26T07:00:09;26.30;94.40
7216;DHT22;3649;48.798;9.798;2023-06-26T07:02:38;26.60;94.20
7216;DHT22;3649;48.798;9.798;2023-06-26T07:05:05;26.80;94.10
7216;DHT22;3649;48.798;9.798;2023-06-26T07:07:34;26.90;93.90
7216;DHT22;3649;48.798;9.798;2023-06-26T07:10:06;27.20;93.60
7216;DHT22;3649;48.798;9.798;2023-06-26T07:12:35;27.30;93.40
7216;DHT22;3649;48.798;9.798;2023-06-26T07:15:03;27.60;93.20
7216;DHT22;3649;48.798;9.798;2023-06-26T07:17:34;27.70;92.90
7216;DHT22;3649;48.798;9.798;2023-06-26T07:20:02;27.80;92.80
7216;DHT22;3649;48.798;9.798;2023-06-26T07:22:37;27.90;92.60
7216;DHT22;3649;48.798;9.798;2023-06-26T07:25:04;28.10;92.50
7216;DHT22;3649;48.798;9.798;2023-06-26T07:27:39;28.20;92.20
7216;DHT22;3649;48.798;9.798;2023-06-26T07:30:06;28.30;92.00
7216;DHT22;3649;48.798;9.798;2023-06-26T07:32:36;28.40;91.90
7216;DHT22;3649;48.798;9.798;2023-06-26T07:35:04;28.50;91.90
7216;DHT22;3649;48.798;9.798;2023-06-26T07:37:34;28.60;91.90
7216;DHT22;3649;48.798;9.798;2023-06-26T07:40:01;28.70;91.90
7216;DHT22;3649;48.798;9.798;2023-06-26T07:42:29;28.70;91.80
7216;DHT22;3649;48.798;9.798;2023-06-26T07:44:56;28.80;91.70
7216;DHT22;3649;48.798;9.798;2023-06-26T07:47:23;28.90;91.60
7216;DHT22;3649;48.798;9.798;2023-06-26T07:49:50;28.90;91.50
7216;DHT22;3649;48.798;9.798;2023-06-26T07:52:18;29.00;91.30
7216;DHT22;3649;48.798;9.798;2023-06-26T07:54:45;29.00;91.20
7216;DHT22;3649;48.798;9.798;2023-06-26T07:57:12;29.00;91.30
7216;DHT22;3649;48.798;9.798;2023-06-26T07:59:39;29.10;90.90
7216;DHT22;3649;48.798;9.798;2023-06-26T08:02:07;29.10;90.90
7216;DHT22;3649;48.798;9.798;2023-06-26T08:04:34;29.20;91.00
7216;DHT22;3649;48.798;9.798;2023-06-26T08:07:01;29.20;91.00
7216;DHT22;3649;48.798;9.798;2023-06-26T08:09:29;29.30;91.10
7216;DHT22;3649;48.798;9.798;2023-06-26T08:11:57;29.30;91.20
7216;DHT22;3649;48.798;9.798;2023-06-26T08:14:24;29.30;91.10
7216;DHT22;3649;48.798;9.798;2023-06-26T08:16:52;29.40;91.10
7216;DHT22;3649;48.798;9.798;2023-06-26T08:19:18;29.40;91.30
7216;DHT22;3649;48.798;9.798;2023-06-26T08:21:46;29.40;91.20
7216;DHT22;3649;48.798;9.798;2023-06-26T08:24:13;29.40;91.20
7216;DHT22;3649;48.798;9.798;2023-06-26T08:26:40;29.40;90.90
7216;DHT22;3649;48.798;9.798;2023-06-26T08:29:07;29.40;90.90
7216;DHT22;3649;48.798;9.798;2023-06-26T08:31:39;29.50;90.80
7216;DHT22;3649;48.798;9.798;2023-06-26T08:34:07;29.40;90.90
7216;DHT22;3649;48.798;9.798;2023-06-26T08:36:34;29.40;90.70
7216;DHT22;3649;48.798;9.798;2023-06-26T08:39:02;29.40;90.70
7216;DHT22;3649;48.798;9.798;2023-06-26T08:41:30;29.40;90.70
7216;DHT22;3649;48.798;9.798;2023-06-26T08:43:58;29.40;90.80
7216;DHT22;3649;48.798;9.798;2023-06-26T08:46:25;29.40;90.80
7216;DHT22;3649;48.798;9.798;2023-06-26T08:48:56;29.30;90.50
7216;DHT22;3649;48.798;9.798;2023-06-26T08:51:25;29.40;90.50
7216;DHT22;3649;48.798;9.798;2023-06-26T08:53:59;29.50;90.30
7216;DHT22;3649;48.798;9.798;2023-06-26T08:56:37;29.50;90.30
7216;DHT22;3649;48.798;9.798;2023-06-26T08:59:05;29.50;90.20
7216;DHT22;3649;48.798;9.798;2023-06-26T09:01:32;29.50;90.20
7216;DHT22;3649;48.798;9.798;2023-06-26T09:03:59;29.50;90.50
7216;DHT22;3649;48.798;9.798;2023-06-26T09:06:27;29.50;90.40
7216;DHT22;3649;48.798;9.798;2023-06-26T09:08:54;29.40;90.10
7216;DHT22;3649;48.798;9.798;2023-06-26T09:11:22;29.50;90.30
7216;DHT22;3649;48.798;9.798;2023-06-26T09:13:49;29.50;90.40
7216;DHT22;3649;48.798;9.798;2023-06-26T09:16:16;29.50;90.60
7216;DHT22;3649;48.798;9.798;2023-06-26T09:18:45;29.50;90.90
7216;DHT22;3649;48.798;9.798;2023-06-26T09:21:12;29.50;90.70
7216;DHT22;3649;48.798;9.798;2023-06-26T09:23:40;29.40;90.60
7216;DHT22;3649;48.798;9.798;2023-06-26T09:26:08;29.40;90.50
7216;DHT22;3649;48.798;9.798;2023-06-26T09:28:35;29.40;90.60
7216;DHT22;3649;48.798;9.798;2023-06-26T09:31:03;29.40;90.70
7216;DHT22;3649;48.798;9.798;2023-06-26T09:33:38;29.40;90.70
7216;DHT22;3649;48.798;9.798;2023-06-26T09:36:19;29.40;90.60
7216;DHT22;3649;48.798;9.798;2023-06-26T09:38:46;29.40;89.60
7216;DHT22;3649;48.798;9.798;2023-06-26T09:41:17;29.50;89.90
7216;DHT22;3649;48.798;9.798;2023-06-26T09:43:51;29.40;90.00
7216;DHT22;3649;48.798;9.798;2023-06-26T09:46:27;29.50;89.90
7216;DHT22;3649;48.798;9.798;2023-06-26T09:49:06;29.50;89.80
7216;DHT22;3649;48.798;9.798;2023-06-26T09:51:34;29.50;90.10
7216;DHT22;3649;48.798;9.798;2023-06-26T09:54:03;29.40;90.30
7216;DHT22;3649;48.798;9.798;2023-06-26T09:56:31;29.40;90.40
7216;DHT22;3649;48.798;9.798;2023-06-26T09:59:02;29.30;90.00
7216;DHT22;3649;48.798;9.798;2023-06-26T10:01:30;29.40;89.80
7216;DHT22;3649;48.798;9.798;2023-06-26T10:03:58;29.40;89.70
7216;DHT22;3649;48.798;9.798;2023-06-26T10:06:33;29.50;90.00
7216;DHT22;3649;48.798;9.798;2023-06-26T10:09:01;29.50;90.40
7216;DHT22;3649;48.798;9.798;2023-06-26T10:11:53;29.50;90.40
7216;DHT22;3649;48.798;9.798;2023-06-26T10:14:22;29.40;90.40
7216;DHT22;3649;48.798;9.798;2023-06-26T10:16:51;29.50;90.20
7216;DHT22;3649;48.798;9.798;2023-06-26T10:19:19;29.50;89.90
7216;DHT22;3649;48.798;9.798;2023-06-26T10:21:55;29.60;90.30
7216;DHT22;3649;48.798;9.798;2023-06-26T10:24:23;29.50;90.50
7216;DHT22;3649;48.798;9.798;2023-06-26T10:26:57;29.50;90.50
7216;DHT22;3649;48.798;9.798;2023-06-26T10:29:26;29.50;90.30
7216;DHT22;3649;48.798;9.798;2023-06-26T10:31:56;29.50;90.40
7216;DHT22;3649;48.798;9.798;2023-06-26T10:34:26;29.50;90.20
7216;DHT22;3649;48.798;9.798;2023-06-26T10:37:03;29.50;90.20
7216;DHT22;3649;48.798;9.798;2023-06-26T10:39:49;29.50;90.20
7216;DHT22;3649;48.798;9.798;2023-06-26T10:42:17;29.50;90.20
7216;DHT22;3649;48.798;9.798;2023-06-26T10:44:47;29.50;90.20
7216;DHT22;3649;48.798;9.798;2023-06-26T10:47:32;29.60;89.60
7216;DHT22;3649;48.798;9.798;2023-06-26T10:53:28;29.60;90.10
7216;DHT22;3649;48.798;9.798;2023-06-26T10:56:04;29.60;89.60
7216;DHT22;3649;48.798;9.798;2023-06-26T11:03:47;29.70;89.70
7216;DHT22;3649;48.798;9.798;2023-06-26T11:06:20;29.80;90.10
7216;DHT22;3649;48.798;9.798;2023-06-26T11:11:16;29.60;90.20
7216;DHT22;3649;48.798;9.798;2023-06-26T11:13:45;29.60;90.10
7216;DHT22;3649;48.798;9.798;2023-06-26T11:16:13;29.70;90.40
7216;DHT22;3649;48.798;9.798;2023-06-26T11:18:41;29.80;90.70
7216;DHT22;3649;48.798;9.798;2023-06-26T11:21:09;29.90;90.70
7216;DHT22;3649;48.798;9.798;2023-06-26T11:23:38;30.10;90.70
7216;DHT22;3649;48.798;9.798;2023-06-26T11:26:21;30.10;90.70
7216;DHT22;3649;48.798;9.798;2023-06-26T11:28:54;30.20;90.60
7216;DHT22;3649;48.798;9.798;2023-06-26T11:31:25;30.20;90.50
7216;DHT22;3649;48.798;9.798;2023-06-26T11:33:53;30.20;90.50
7216;DHT22;3649;48.798;9.798;2023-06-26T11:36:23;30.30;90.40
7216;DHT22;3649;48.798;9.798;2023-06-26T11:38:56;30.40;90.00
7216;DHT22;3649;48.798;9.798;2023-06-26T11:41:25;30.40;89.50
7216;DHT22;3649;48.798;9.798;2023-06-26T11:43:53;30.50;90.10
7216;DHT22;3649;48.798;9.798;2023-06-26T11:46:22;30.50;90.10
7216;DHT22;3649;48.798;9.798;2023-06-26T11:48:49;30.50;90.20
7216;DHT22;3649;48.798;9.798;2023-06-26T11:51:16;30.50;90.40
7216;DHT22;3649;48.798;9.798;2023-06-26T11:53:45;30.50;90.60
7216;DHT22;3649;48.798;9.798;2023-06-26T11:56:14;30.50;90.20
7216;DHT22;3649;48.798;9.798;2023-06-26T11:58:57;30.60;90.40
7216;DHT22;3649;48.798;9.798;2023-06-26T12:01:25;30.50;89.80
7216;DHT22;3649;48.798;9.798;2023-06-26T12:03:57;30.70;90.00
7216;DHT22;3649;48.798;9.798;2023-06-26T12:06:25;30.60;90.10
7216;DHT22;3649;48.798;9.798;2023-06-26T12:08:53;30.60;90.10
7216;DHT22;3649;48.798;9.798;2023-06-26T12:11:20;30.60;90.10
7216;DHT22;3649;48.798;9.798;2023-06-26T12:13:50;30.60;90.20
7216;DHT22;3649;48.798;9.798;2023-06-26T12:16:17;30.60;90.40
7216;DHT22;3649;48.798;9.798;2023-06-26T12:18:44;30.50;90.70
7216;DHT22;3649;48.798;9.798;2023-06-26T12:24:04;30.50;91.00
7216;DHT22;3649;48.798;9.798;2023-06-26T12:26:32;30.50;91.00
7216;DHT22;3649;48.798;9.798;2023-06-26T12:29:09;30.60;91.30
7216;DHT22;3649;48.798;9.798;2023-06-26T12:31:49;30.50;91.40
7216;DHT22;3649;48.798;9.798;2023-06-26T12:34:19;30.50;91.40
7216;DHT22;3649;48.798;9.798;2023-06-26T12:36:50;30.60;91.70
7216;DHT22;3649;48.798;9.798;2023-06-26T12:39:18;30.60;91.90
7216;DHT22;3649;48.798;9.798;2023-06-26T12:41:47;30.70;91.80
7216;DHT22;3649;48.798;9.798;2023-06-26T12:44:28;30.70;91.80
7216;DHT22;3649;48.798;9.798;2023-06-26T12:47:01;30.70;92.00
7216;DHT22;3649;48.798;9.798;2023-06-26T12:49:36;30.70;92.10
7216;DHT22;3649;48.798;9.798;2023-06-26T12:52:09;30.70;92.30
7216;DHT22;3649;48.798;9.798;2023-06-26T12:54:39;30.70;92.60
7216;DHT22;3649;48.798;9.798;2023-06-26T12:57:06;30.60;92.80
7216;DHT22;3649;48.798;9.798;2023-06-26T12:59:35;30.70;92.50
7216;DHT22;3649;48.798;9.798;2023-06-26T13:02:02;30.80;92.60
7216;DHT22;3649;48.798;9.798;2023-06-26T13:04:30;30.80;92.60
7216;DHT22;3649;48.798;9.798;2023-06-26T13:06:57;30.80;92.70
7216;DHT22;3649;48.798;9.798;2023-06-26T13:09:25;30.80;92.70
7216;DHT22;3649;48.798;9.798;2023-06-26T13:11:52;30.80;92.70
7216;DHT22;3649;48.798;9.798;2023-06-26T13:14:20;30.80;92.40
7216;DHT22;3649;48.798;9.798;2023-06-26T13:16:47;30.80;92.40
7216;DHT22;3649;48.798;9.798;2023-06-26T13:19:15;30.80;92.50
7216;DHT22;3649;48.798;9.798;2023-06-26T13:21:42;30.90;92.60
7216;DHT22;3649;48.798;9.798;2023-06-26T13:24:09;30.80;92.70
7216;DHT22;3649;48.798;9.798;2023-06-26T13:26:37;30.80;92.90
7216;DHT22;3649;48.798;9.798;2023-06-26T13:29:04;30.80;93.00
7216;DHT22;3649;48.798;9.798;2023-06-26T13:31:32;30.80;93.20
7216;DHT22;3649;48.798;9.798;2023-06-26T13:34:02;30.80;93.20
7216;DHT22;3649;48.798;9.798;2023-06-26T13:36:30;30.70;93.30
7216;DHT22;3649;48.798;9.798;2023-06-26T13:39:02;30.80;93.30
7216;DHT22;3649;48.798;9.798;2023-06-26T13:41:29;30.80;93.30
7216;DHT22;3649;48.798;9.798;2023-06-26T13:43:56;30.90;93.30
7216;DHT22;3649;48.798;9.798;2023-06-26T13:46:30;30.90;93.50
7216;DHT22;3649;48.798;9.798;2023-06-26T13:48:56;30.80;93.50
7216;DHT22;3649;48.798;9.798;2023-06-26T13:51:24;30.90;93.50
7216;DHT22;3649;48.798;9.798;2023-06-26T13:53:51;30.90;93.40
7216;DHT22;3649;48.798;9.798;2023-06-26T13:56:18;31.00;93.40
7216;DHT22;3649;48.798;9.798;2023-06-26T13:58:45;31.00;93.40
7216;DHT22;3649;48.798;9.798;2023-06-26T14:01:12;31.00;93.40
7216;DHT22;3649;48.798;9.798;2023-06-26T14:03:40;31.00;93.50
7216;DHT22;3649;48.798;9.798;2023-06-26T14:06:07;31.00;93.20
7216;DHT22;3649;48.798;9.798;2023-06-26T14:08:34;31.00;93.40
7216;DHT22;3649;48.798;9.798;2023-06-26T14:11:01;30.90;93.40
7216;DHT22;3649;48.798;9.798;2023-06-26T14:13:28;30.90;93.30
7216;DHT22;3649;48.798;9.798;2023-06-26T14:15:55;30.90;93.30
7216;DHT22;3649;48.798;9.798;2023-06-26T14:18:23;30.80;93.20
7216;DHT22;3649;48.798;9.798;2023-06-26T14:20:51;30.80;93.30
7216;DHT22;3649;48.798;9.798;2023-06-26T14:23:18;30.80;93.00
7216;DHT22;3649;48.798;9.798;2023-06-26T14:25:45;30.80;92.90
7216;DHT22;3649;48.798;9.798;2023-06-26T14:28:15;30.80;92.90
7216;DHT22;3649;48.798;9.798;2023-06-26T14:30:42;30.80;92.90
7216;DHT22;3649;48.798;9.798;2023-06-26T14:33:09;30.80;92.80
7216;DHT22;3649;48.798;9.798;2023-06-26T14:35:36;30.80;92.40
7216;DHT22;3649;48.798;9.798;2023-06-26T14:38:03;30.80;92.30
7216;DHT22;3649;48.798;9.798;2023-06-26T14:40:30;30.80;92.00
7216;DHT22;3649;48.798;9.798;2023-06-26T14:42:57;30.80;92.10
7216;DHT22;3649;48.798;9.798;2023-06-26T14:45:24;30.70;92.50
7216;DHT22;3649;48.798;9.798;2023-06-26T14:47:52;30.70;91.90
7216;DHT22;3649;48.798;9.798;2023-06-26T14:50:19;30.70;91.50
7216;DHT22;3649;48.798;9.798;2023-06-26T14:52:46;30.60;91.50
7216;DHT22;3649;48.798;9.798;2023-06-26T14:55:13;30.60;91.00
7216;DHT22;3649;48.798;9.798;2023-06-26T14:57:40;30.70;91.00
7216;DHT22;3649;48.798;9.798;2023-06-26T15:00:07;30.60;90.50
7216;DHT22;3649;48.798;9.798;2023-06-26T15:02:34;30.70;90.70
7216;DHT22;3649;48.798;9.798;2023-06-26T15:05:02;30.80;90.20
7216;DHT22;3649;48.798;9.798;2023-06-26T15:07:29;30.60;89.90
7216;DHT22;3649;48.798;9.798;2023-06-26T15:09:55;30.60;89.70
7216;DHT22;3649;48.798;9.798;2023-06-26T15:12:23;30.60;90.30
7216;DHT22;3649;48.798;9.798;2023-06-26T15:14:50;30.50;89.50
7216;DHT22;3649;48.798;9.798;2023-06-26T15:17:18;30.50;89.20
7216;DHT22;3649;48.798;9.798;2023-06-26T15:19:45;30.50;90.00
7216;DHT22;3649;48.798;9.798;2023-06-26T15:22:12;30.50;89.10
7216;DHT22;3649;48.798;9.798;2023-06-26T15:24:39;30.50;88.80
7216;DHT22;3649;48.798;9.798;2023-06-26T15:27:06;30.50;88.70
7216;DHT22;3649;48.798;9.798;2023-06-26T15:29:34;30.50;88.60
7216;DHT22;3649;48.798;9.798;2023-06-26T15:32:02;30.50;88.80
7216;DHT22;3649;48.798;9.798;2023-06-26T15:34:29;30.50;88.70
7216;DHT22;3649;48.798;9.798;2023-06-26T15:36:55;30.50;88.60
7216;DHT22;3649;48.798;9.798;2023-06-26T15:39:22;29.90;88.30
7216;DHT22;3649;48.798;9.798;2023-06-26T15:41:49;30.40;88.50
7216;DHT22;3649;48.798;9.798;2023-06-26T15:44:16;30.40;89.10
7216;DHT22;3649;48.798;9.798;2023-06-26T15:46:43;30.40;88.10
7216;DHT22;3649;48.798;9.798;2023-06-26T15:49:10;30.40;88.50
7216;DHT22;3649;48.798;9.798;2023-06-26T15:51:37;30.40;89.20
7216;DHT22;3649;48.798;9.798;2023-06-26T15:54:04;30.30;88.90
7216;DHT22;3649;48.798;9.798;2023-06-26T15:56:32;30.30;88.30
7216;DHT22;3649;48.798;9.798;2023-06-26T15:58:59;30.20;88.30
7216;DHT22;3649;48.798;9.798;2023-06-26T16:01:26;30.20;89.20
7216;DHT22;3649;48.798;9.798;2023-06-26T16:03:53;30.10;88.40
7216;DHT22;3649;48.798;9.798;2023-06-26T16:06:20;30.10;88.50
7216;DHT22;3649;48.798;9.798;2023-06-26T16:08:47;30.00;88.50
7216;DHT22;3649;48.798;9.798;2023-06-26T16:11:15;30.00;88.50
7216;DHT22;3649;48.798;9.798;2023-06-26T16:13:42;29.90;88.60
7216;DHT22;3649;48.798;9.798;2023-06-26T16:16:11;30.00;89.10
7216;DHT22;3649;48.798;9.798;2023-06-26T16:18:39;29.90;89.00
7216;DHT22;3649;48.798;9.798;2023-06-26T16:21:06;29.90;89.00
7216;DHT22;3649;48.798;9.798;2023-06-26T16:23:33;30.00;89.30
7216;DHT22;3649;48.798;9.798;2023-06-26T16:26:00;29.90;89.20
7216;DHT22;3649;48.798;9.798;2023-06-26T16:28:27;29.90;89.20